createdAt,value
2018-05-26T00:01:05.085Z,17.90
2018-05-26T00:03:32.526Z,15.13
2018-05-26T00:05:59.974Z,13.67
2018-05-26T00:08:27.470Z,14.80
2018-05-26T00:10:56.619Z,15.03
2018-05-26T00:13:24.071Z,15.07
2018-05-26T00:15:51.535Z,14.23
2018-05-26T00:18:19.741Z,14.43
2018-05-26T00:20:47.182Z,13.30
2018-05-26T00:23:14.623Z,14.57
2018-05-26T00:25:42.066Z,14.47
2018-05-26T00:28:09.526Z,14.40
2018-05-26T00:30:36.975Z,13.90
2018-05-26T00:33:04.431Z,12.80
2018-05-26T00:35:31.876Z,13.67
2018-05-26T00:37:59.317Z,17.40
2018-05-26T00:40:26.753Z,19.53
2018-05-26T00:42:54.205Z,18.80
2018-05-26T00:45:22.423Z,18.53
2018-05-26T00:47:49.878Z,22.60
2018-05-26T00:50:17.333Z,20.37
2018-05-26T00:52:44.794Z,22.60
2018-05-26T00:55:12.248Z,24.50
2018-05-26T00:57:39.678Z,20.73
2018-05-26T01:00:07.896Z,26.37
2018-05-26T01:02:35.341Z,20.80
2018-05-26T01:05:02.779Z,19.07
2018-05-26T01:07:30.231Z,20.30
2018-05-26T01:09:57.705Z,19.80
2018-05-26T01:12:25.158Z,19.50
2018-05-26T01:14:52.598Z,20.33
2018-05-26T01:17:20.837Z,20.43
2018-05-26T01:19:48.285Z,21.27
2018-05-26T01:22:15.742Z,19.90
2018-05-26T01:24:43.210Z,20.57
2018-05-26T01:27:11.426Z,22.40
2018-05-26T01:29:39.780Z,18.73
2018-05-26T01:32:07.243Z,21.93
2018-05-26T01:34:34.683Z,19.20
2018-05-26T01:37:02.141Z,19.27
2018-05-26T01:39:30.367Z,18.53
2018-05-26T01:41:57.825Z,21.43
2018-05-26T01:44:25.282Z,20.00
2018-05-26T01:46:52.735Z,20.27
2018-05-26T01:49:20.951Z,21.30
2018-05-26T01:51:48.402Z,22.00
2018-05-26T01:54:15.858Z,21.47
2018-05-26T01:56:43.304Z,22.63
2018-05-26T01:59:10.746Z,20.60
2018-05-26T02:01:38.194Z,18.87
2018-05-26T02:04:05.652Z,19.73
2018-05-26T02:06:33.864Z,21.60
2018-05-26T02:09:01.319Z,21.60
2018-05-26T02:11:28.775Z,19.80
2018-05-26T02:13:56.236Z,17.90
2018-05-26T02:16:24.454Z,20.73
2018-05-26T02:18:51.904Z,21.20
2018-05-26T02:21:19.348Z,21.00
2018-05-26T02:23:46.811Z,19.50
2018-05-26T02:26:14.263Z,18.50
2018-05-26T02:28:41.722Z,17.63
2018-05-26T02:31:09.934Z,17.37
2018-05-26T02:33:37.678Z,19.10
2018-05-26T02:36:05.148Z,19.57
2018-05-26T02:38:32.604Z,19.30
2018-05-26T02:41:00.061Z,17.37
2018-05-26T02:43:28.286Z,17.13
2018-05-26T02:45:55.736Z,18.27
2018-05-26T02:48:23.197Z,18.93
2018-05-26T02:50:50.630Z,17.97
2018-05-26T02:53:18.078Z,19.07
2018-05-26T02:55:45.536Z,20.50
2018-05-26T02:58:13.771Z,19.80
2018-05-26T03:00:41.208Z,17.77
2018-05-26T03:03:08.646Z,18.13
2018-05-26T03:05:41.745Z,18.23
2018-05-26T03:08:14.929Z,16.37
2018-05-26T03:10:48.059Z,19.13
2018-05-26T03:13:21.325Z,18.27
2018-05-26T03:15:57.370Z,18.47
2018-05-26T03:18:24.830Z,18.50
2018-05-26T03:20:52.277Z,18.30
2018-05-26T03:23:19.726Z,18.00
2018-05-26T03:25:47.191Z,17.10
2018-05-26T03:28:14.630Z,18.53
2018-05-26T03:30:42.094Z,17.27
2018-05-26T03:33:10.400Z,18.63
2018-05-26T03:35:37.842Z,20.00
2018-05-26T03:38:05.298Z,18.80
2018-05-26T03:40:32.759Z,18.00
2018-05-26T03:43:00.201Z,16.87
2018-05-26T03:45:27.843Z,19.80
2018-05-26T03:47:55.285Z,19.77
2018-05-26T03:50:22.741Z,18.53
2018-05-26T03:52:50.183Z,19.47
2018-05-26T03:55:38.222Z,19.33
2018-05-26T03:58:18.500Z,16.80
2018-05-26T04:00:45.956Z,20.17
2018-05-26T04:03:13.398Z,19.50
2018-05-26T04:05:40.837Z,20.60
2018-05-26T04:08:08.279Z,18.77
2018-05-26T04:10:35.737Z,18.30
2018-05-26T04:13:04.000Z,20.07
2018-05-26T04:15:31.450Z,19.30
2018-05-26T04:17:58.901Z,20.30
2018-05-26T04:20:26.345Z,19.97
2018-05-26T04:22:53.817Z,21.33
2018-05-26T04:25:21.277Z,22.10
2018-05-26T04:27:48.746Z,21.90
2018-05-26T04:30:16.207Z,20.40
2018-05-26T04:32:43.669Z,20.00
2018-05-26T04:35:11.134Z,20.33
2018-05-26T04:37:39.365Z,19.83
2018-05-26T04:40:06.824Z,20.30
2018-05-26T04:42:35.046Z,23.00
2018-05-26T04:45:02.483Z,21.03
2018-05-26T04:47:29.941Z,20.73
2018-05-26T04:49:57.397Z,19.87
2018-05-26T04:52:24.858Z,22.17
2018-05-26T04:54:53.094Z,20.20
2018-05-26T04:57:20.543Z,20.60
2018-05-26T04:59:47.973Z,21.53
2018-05-26T05:02:15.417Z,22.73
2018-05-26T05:04:42.866Z,20.87
2018-05-26T05:07:10.330Z,19.87
2018-05-26T05:09:37.770Z,20.73
2018-05-26T05:12:06.010Z,20.93
2018-05-26T05:14:33.450Z,19.90
2018-05-26T05:17:01.012Z,21.23
2018-05-26T05:19:28.413Z,19.87
2018-05-26T05:21:56.667Z,18.43
2018-05-26T05:24:24.186Z,19.77
2018-05-26T05:26:51.714Z,19.20
2018-05-26T05:29:19.078Z,19.00
2018-05-26T05:31:46.523Z,17.47
2018-05-26T05:34:13.978Z,25.30
2018-05-26T05:36:41.422Z,16.60
2018-05-26T05:39:08.884Z,18.67
2018-05-26T05:41:36.330Z,17.00
2018-05-26T05:44:03.785Z,17.40
2018-05-26T05:46:31.242Z,16.30
2018-05-26T05:48:58.682Z,16.87
2018-05-26T05:51:26.137Z,15.87
2018-05-26T05:53:54.354Z,13.77
2018-05-26T05:56:21.888Z,15.00
2018-05-26T05:58:49.282Z,14.93
2018-05-26T06:01:16.734Z,14.77
2018-05-26T06:03:44.190Z,14.90
2018-05-26T06:06:12.387Z,16.57
2018-05-26T06:08:39.875Z,16.10
2018-05-26T06:11:07.313Z,14.13
2018-05-26T06:13:34.769Z,15.47
2018-05-26T06:16:02.985Z,13.00
2018-05-26T06:18:30.444Z,12.90
2018-05-26T06:20:57.912Z,12.80
2018-05-26T06:23:26.117Z,12.60
2018-05-26T06:25:53.566Z,11.37
2018-05-26T06:28:21.112Z,12.87
2018-05-26T06:30:48.552Z,11.90
2018-05-26T06:33:16.021Z,14.10
2018-05-26T06:35:43.497Z,13.00
2018-05-26T06:38:10.948Z,12.27
2018-05-26T06:40:39.133Z,13.50
2018-05-26T06:43:06.587Z,13.70
2018-05-26T06:45:34.085Z,13.87
2018-05-26T06:48:01.541Z,15.13
2018-05-26T06:50:28.983Z,15.10
2018-05-26T06:52:56.425Z,16.30
2018-05-26T06:55:23.865Z,14.50
2018-05-26T06:57:51.317Z,16.77
2018-05-26T07:00:18.799Z,15.87
2018-05-26T07:02:46.605Z,14.50
2018-05-26T07:05:14.805Z,15.20
2018-05-26T07:07:42.270Z,14.37
2018-05-26T07:10:09.745Z,14.40
2018-05-26T07:12:37.186Z,14.90
2018-05-26T07:15:05.415Z,13.77
2018-05-26T07:17:32.866Z,14.57
2018-05-26T07:20:00.305Z,14.40
2018-05-26T07:22:27.758Z,15.03
2018-05-26T07:24:55.197Z,13.40
2018-05-26T07:27:22.658Z,16.27
2018-05-26T07:29:50.873Z,14.40
2018-05-26T07:32:18.306Z,15.57
2018-05-26T07:34:45.750Z,16.33
2018-05-26T07:37:13.250Z,16.57
2018-05-26T07:39:41.465Z,15.37
2018-05-26T07:42:08.922Z,14.80
2018-05-26T07:44:36.373Z,14.10
2018-05-26T07:47:03.839Z,14.10
2018-05-26T07:49:32.046Z,16.07
2018-05-26T07:51:59.523Z,13.80
2018-05-26T07:54:26.957Z,14.23
2018-05-26T07:56:54.411Z,13.20
2018-05-26T07:59:21.859Z,11.93
2018-05-26T08:01:50.093Z,14.37
2018-05-26T08:04:17.539Z,13.70
2018-05-26T08:06:44.982Z,13.97
2018-05-26T08:09:12.923Z,13.00
2018-05-26T08:11:40.371Z,12.50
2018-05-26T08:14:07.830Z,12.97
2018-05-26T08:16:35.272Z,11.30
2018-05-26T08:19:02.725Z,17.37
2018-05-26T08:21:30.164Z,13.33
2018-05-26T08:23:57.664Z,11.40
2018-05-26T08:26:25.103Z,12.10
2018-05-26T08:28:52.559Z,12.17
2018-05-26T08:31:20.015Z,12.50
2018-05-26T08:33:47.549Z,9.60
2018-05-26T08:36:14.918Z,10.70
2018-05-26T08:38:42.364Z,11.07
2018-05-26T08:41:09.820Z,11.00
2018-05-26T08:43:37.262Z,12.37
2018-05-26T08:46:05.490Z,10.70
2018-05-26T08:48:32.947Z,11.37
2018-05-26T08:51:00.398Z,10.37
2018-05-26T08:53:27.855Z,23.00
2018-05-26T08:55:56.071Z,12.50
2018-05-26T08:58:23.518Z,8.73
2018-05-26T09:00:50.978Z,10.00
2018-05-26T09:03:18.450Z,12.50
2018-05-26T09:05:46.683Z,9.40
2018-05-26T09:08:14.141Z,8.90
2018-05-26T09:10:41.595Z,10.37
2018-05-26T09:13:09.819Z,8.77
2018-05-26T09:15:37.262Z,9.43
2018-05-26T09:18:04.724Z,7.77
2018-05-26T09:20:32.190Z,6.87
2018-05-26T09:23:00.398Z,6.27
2018-05-26T09:25:27.900Z,6.07
2018-05-26T09:27:55.304Z,6.70
2018-05-26T09:30:22.747Z,11.00
2018-05-26T09:32:50.203Z,9.20
2018-05-26T09:35:17.634Z,6.57
2018-05-26T09:37:45.082Z,5.03
2018-05-26T09:40:12.591Z,6.27
2018-05-26T09:42:40.019Z,4.30
2018-05-26T09:45:07.507Z,5.70
2018-05-26T09:47:34.947Z,6.03
2018-05-26T09:50:02.386Z,3.90
2018-05-26T09:52:29.838Z,4.43
2018-05-26T09:54:57.313Z,4.97
2018-05-26T09:57:25.515Z,5.37
2018-05-26T09:59:52.946Z,6.20
2018-05-26T10:02:20.381Z,4.30
2018-05-26T10:04:47.829Z,4.60
2018-05-26T10:07:15.283Z,4.07
2018-05-26T10:09:42.736Z,6.90
2018-05-26T10:12:10.158Z,4.33
2018-05-26T10:14:37.590Z,4.20
2018-05-26T10:17:05.026Z,3.77
2018-05-26T10:19:32.466Z,5.00
2018-05-26T10:21:59.923Z,5.70
2018-05-26T10:24:27.382Z,4.20
2018-05-26T10:26:54.812Z,4.80
2018-05-26T10:29:22.256Z,4.10
2018-05-26T10:31:50.123Z,4.20
2018-05-26T10:34:17.985Z,4.70
2018-05-26T10:36:45.413Z,4.73
2018-05-26T10:39:12.872Z,6.27
2018-05-26T10:41:40.318Z,4.23
2018-05-26T10:44:07.790Z,3.80
2018-05-26T10:46:35.982Z,4.60
2018-05-26T10:49:03.445Z,4.50
2018-05-26T10:51:30.898Z,5.10
2018-05-26T10:53:58.354Z,4.33
2018-05-26T10:56:25.801Z,5.30
2018-05-26T10:58:53.321Z,4.13
2018-05-26T11:01:20.731Z,3.70
2018-05-26T11:03:48.172Z,3.20
2018-05-26T11:06:15.623Z,3.37
2018-05-26T11:08:43.066Z,3.83
2018-05-26T11:11:10.498Z,4.10
2018-05-26T11:13:37.929Z,3.13
2018-05-26T11:16:06.176Z,3.03
2018-05-26T11:18:34.051Z,3.80
2018-05-26T11:21:02.247Z,2.70
2018-05-26T11:23:29.682Z,2.53
2018-05-26T11:25:57.127Z,3.30
2018-05-26T11:28:24.579Z,3.17
2018-05-26T11:30:52.034Z,3.40
2018-05-26T11:33:19.476Z,3.97
2018-05-26T11:35:46.918Z,4.50
2018-05-26T11:38:14.361Z,3.00
2018-05-26T11:40:41.806Z,3.30
2018-05-26T11:43:09.244Z,4.10
2018-05-26T11:45:36.688Z,3.87
2018-05-26T11:48:04.158Z,3.97
2018-05-26T11:50:31.602Z,5.97
2018-05-26T11:52:59.086Z,3.30
2018-05-26T11:55:26.531Z,3.70
2018-05-26T11:57:53.958Z,3.20
2018-05-26T12:00:21.410Z,2.80
2018-05-26T12:02:48.874Z,3.80
2018-05-26T12:05:16.330Z,3.37
2018-05-26T12:07:43.770Z,2.97
2018-05-26T12:10:11.206Z,3.33
2018-05-26T12:12:38.643Z,3.40
2018-05-26T12:15:06.078Z,5.87
2018-05-26T12:17:33.511Z,4.50
2018-05-26T12:20:00.962Z,3.93
2018-05-26T12:22:28.409Z,3.90
2018-05-26T12:24:55.866Z,4.57
2018-05-26T12:27:23.347Z,4.13
2018-05-26T12:29:50.742Z,4.00
2018-05-26T12:32:18.193Z,3.83
2018-05-26T12:34:45.624Z,4.40
2018-05-26T12:37:13.062Z,3.77
2018-05-26T12:39:40.530Z,3.90
2018-05-26T12:42:08.025Z,4.10
2018-05-26T12:44:36.255Z,4.73
2018-05-26T12:47:03.702Z,3.70
2018-05-26T12:49:31.162Z,5.53
2018-05-26T12:51:59.372Z,3.50
2018-05-26T12:54:26.814Z,4.70
2018-05-26T12:56:54.250Z,4.57
2018-05-26T12:59:22.474Z,3.87
2018-05-26T13:01:49.934Z,3.90
2018-05-26T13:04:17.389Z,3.90
2018-05-26T13:06:44.825Z,3.63
2018-05-26T13:09:12.267Z,4.23
2018-05-26T13:11:39.725Z,3.27
2018-05-26T13:14:07.170Z,3.63
2018-05-26T13:16:34.606Z,3.57
2018-05-26T13:19:02.056Z,3.50
2018-05-26T13:21:29.588Z,3.20
2018-05-26T13:23:57.076Z,3.00
2018-05-26T13:26:24.540Z,3.00
2018-05-26T13:28:52.748Z,2.73
2018-05-26T13:31:20.236Z,3.37
2018-05-26T13:33:47.663Z,3.80
2018-05-26T13:36:15.165Z,3.87
2018-05-26T13:38:42.617Z,3.27
2018-05-26T13:41:10.080Z,3.63
2018-05-26T13:43:37.559Z,3.40
2018-05-26T13:46:05.766Z,3.87
2018-05-26T13:48:33.977Z,3.57
2018-05-26T13:51:01.504Z,3.17
2018-05-26T13:53:29.052Z,3.60
2018-05-26T13:55:56.489Z,3.60
2018-05-26T13:58:23.968Z,4.13
2018-05-26T14:00:51.425Z,4.20
2018-05-26T14:03:18.891Z,3.97
2018-05-26T14:05:46.322Z,3.57
2018-05-26T14:08:13.795Z,3.47
2018-05-26T14:10:41.267Z,4.10
2018-05-26T14:13:08.709Z,3.37
2018-05-26T14:15:36.934Z,3.90
2018-05-26T14:18:04.402Z,4.33
2018-05-26T14:20:32.631Z,4.10
2018-05-26T14:23:00.080Z,6.20
2018-05-26T14:28:02.116Z,4.80
2018-05-26T14:30:29.560Z,3.70
2018-05-26T14:32:57.020Z,3.60
2018-05-26T14:35:26.761Z,4.17
2018-05-26T14:37:54.962Z,3.97
2018-05-26T14:40:22.499Z,3.87
2018-05-26T14:42:49.917Z,4.23
2018-05-26T14:45:17.373Z,3.40
2018-05-26T14:47:44.802Z,3.30
2018-05-26T14:50:12.250Z,3.67
2018-05-26T14:52:39.678Z,3.57
2018-05-26T14:55:07.887Z,3.50
2018-05-26T14:57:35.316Z,3.30
2018-05-26T15:00:02.755Z,3.60
2018-05-26T15:02:30.187Z,3.50
2018-05-26T15:04:57.631Z,3.53
2018-05-26T15:07:25.076Z,3.70
2018-05-26T15:09:52.505Z,4.23
2018-05-26T15:12:19.946Z,3.33
2018-05-26T15:14:47.394Z,3.20
2018-05-26T15:17:14.834Z,2.93
2018-05-26T15:19:42.318Z,3.10
2018-05-26T15:22:09.780Z,3.80
2018-05-26T15:24:37.250Z,3.90
2018-05-26T15:27:05.446Z,4.43
2018-05-26T15:29:32.880Z,3.33
2018-05-26T15:32:00.328Z,3.23
2018-05-26T15:34:27.762Z,3.13
2018-05-26T15:36:55.212Z,3.43
2018-05-26T15:39:22.658Z,3.83
2018-05-26T15:41:50.112Z,3.40
2018-05-26T15:44:17.552Z,4.17
2018-05-26T15:46:44.989Z,4.50
2018-05-26T15:49:12.438Z,3.00
2018-05-26T15:51:39.875Z,3.13
2018-05-26T15:54:07.350Z,3.70
2018-05-26T15:56:34.761Z,9.63
2018-05-26T15:59:02.219Z,3.60
2018-05-26T16:01:29.667Z,3.77
2018-05-26T16:03:57.139Z,4.00
2018-05-26T16:06:25.347Z,4.90
2018-05-26T16:08:52.789Z,3.90
2018-05-26T16:11:20.233Z,3.57
2018-05-26T16:13:47.668Z,3.40
2018-05-26T16:16:15.129Z,3.20
2018-05-26T16:18:42.573Z,3.40
2018-05-26T16:21:10.044Z,3.60
2018-05-26T16:23:37.497Z,4.40
2018-05-26T16:26:05.772Z,3.30
2018-05-26T16:28:33.987Z,3.67
2018-05-26T16:31:01.427Z,3.70
2018-05-26T16:33:28.882Z,4.57
2018-05-26T16:35:56.337Z,4.53
2018-05-26T16:38:23.799Z,4.03
2018-05-26T16:40:51.994Z,4.37
2018-05-26T16:43:19.452Z,3.73
2018-05-26T16:45:46.923Z,4.30
2018-05-26T16:48:14.362Z,3.90
2018-05-26T16:50:41.832Z,7.03
2018-05-26T16:53:10.025Z,4.97
2018-05-26T16:55:37.466Z,3.97
2018-05-26T16:58:04.910Z,6.77
2018-05-26T17:00:32.378Z,7.17
2018-05-26T17:02:59.835Z,4.90
2018-05-26T17:05:27.278Z,5.30
2018-05-26T17:07:54.730Z,5.60
2018-05-26T17:10:22.212Z,3.67
2018-05-26T17:12:49.643Z,3.17
2018-05-26T17:15:17.527Z,3.20
2018-05-26T17:17:44.979Z,4.20
2018-05-26T17:20:12.442Z,3.63
2018-05-26T17:22:40.622Z,3.80
2018-05-26T17:25:08.659Z,3.60
2018-05-26T17:27:36.116Z,3.10
2018-05-26T17:30:03.569Z,3.77
2018-05-26T17:32:31.778Z,3.70
2018-05-26T17:34:59.242Z,4.23
2018-05-26T17:37:26.687Z,3.30
2018-05-26T17:39:54.169Z,3.47
2018-05-26T17:42:21.616Z,3.50
2018-05-26T17:44:49.065Z,3.60
2018-05-26T17:47:16.509Z,3.70
2018-05-26T17:49:43.954Z,4.00
2018-05-26T17:52:11.424Z,4.20
2018-05-26T17:54:38.868Z,4.50
2018-05-26T17:57:06.323Z,4.00
2018-05-26T17:59:33.764Z,4.00
2018-05-26T18:02:01.218Z,3.17
2018-05-26T18:04:28.662Z,2.97
2018-05-26T18:06:56.120Z,3.50
2018-05-26T18:09:23.559Z,4.27
2018-05-26T18:11:51.004Z,3.83
2018-05-26T18:14:18.438Z,3.53
2018-05-26T18:16:45.881Z,3.63
2018-05-26T18:19:13.318Z,3.70
2018-05-26T18:21:40.787Z,4.20
2018-05-26T18:24:08.986Z,4.40
2018-05-26T18:26:36.446Z,4.37
2018-05-26T18:29:03.880Z,4.97
2018-05-26T18:31:31.322Z,6.20
2018-05-26T18:33:58.791Z,6.10
2018-05-26T18:36:26.243Z,6.00
2018-05-26T18:38:53.695Z,6.53
2018-05-26T18:41:21.185Z,5.87
2018-05-26T18:43:48.622Z,6.87
2018-05-26T18:46:16.071Z,6.07
2018-05-26T18:48:43.519Z,6.30
2018-05-26T18:51:10.938Z,6.13
2018-05-26T18:53:38.375Z,5.73
2018-05-26T18:56:05.821Z,6.13
2018-05-26T18:58:33.274Z,6.53
2018-05-26T19:01:00.730Z,6.03
2018-05-26T19:03:28.173Z,5.83
2018-05-26T19:05:55.629Z,5.27
2018-05-26T19:08:23.049Z,5.67
2018-05-26T19:10:50.479Z,5.37
2018-05-26T19:13:17.942Z,4.77
2018-05-26T19:15:45.422Z,5.90
2018-05-26T19:18:12.864Z,5.40
2018-05-26T19:20:40.298Z,5.13
2018-05-26T19:23:07.728Z,5.50
2018-05-26T19:25:35.166Z,5.90
2018-05-26T19:28:02.642Z,5.20
2018-05-26T19:30:30.080Z,6.30
2018-05-26T19:32:57.518Z,6.27
2018-05-26T19:35:24.983Z,6.47
2018-05-26T19:37:53.210Z,4.80
2018-05-26T19:40:20.656Z,6.20
2018-05-26T19:42:48.731Z,7.17
2018-05-26T19:45:16.190Z,8.00
2018-05-26T19:47:43.669Z,7.60
2018-05-26T19:50:11.126Z,8.83
2018-05-26T19:52:38.554Z,7.90
2018-05-26T19:55:06.009Z,7.53
2018-05-26T19:57:33.469Z,7.53
2018-05-26T20:00:00.924Z,6.93
2018-05-26T20:02:28.381Z,7.63
2018-05-26T20:04:55.814Z,8.83
2018-05-26T20:07:23.281Z,8.90
2018-05-26T20:09:51.490Z,8.70
2018-05-26T20:12:18.958Z,8.00
2018-05-26T20:14:46.406Z,8.83
2018-05-26T20:17:13.851Z,9.33
2018-05-26T20:19:41.309Z,8.00
2018-05-26T20:22:08.808Z,8.60
2018-05-26T20:24:36.275Z,8.30
2018-05-26T20:27:03.726Z,9.30
2018-05-26T20:29:31.185Z,8.53
2018-05-26T20:31:59.387Z,8.20
2018-05-26T20:34:26.850Z,7.80
2018-05-26T20:36:54.286Z,8.20
2018-05-26T20:39:21.724Z,8.73
2018-05-26T20:41:49.182Z,9.10
2018-05-26T20:44:16.637Z,9.07
2018-05-26T20:46:44.094Z,8.87
2018-05-26T20:49:11.559Z,10.00
2018-05-26T20:51:39.788Z,10.13
2018-05-26T20:54:07.218Z,10.10
2018-05-26T20:56:34.714Z,11.17
2018-05-26T20:59:02.146Z,10.93
2018-05-26T21:01:29.590Z,11.73
2018-05-26T21:03:57.086Z,11.33
2018-05-26T21:06:24.549Z,12.67
2018-05-26T21:08:51.991Z,11.13
2018-05-26T21:11:19.450Z,10.90
2018-05-26T21:13:47.721Z,11.87
2018-05-26T21:16:15.930Z,11.80
2018-05-26T21:18:43.389Z,11.47
2018-05-26T21:21:10.873Z,11.80
2018-05-26T21:23:39.078Z,11.87
2018-05-26T21:26:07.404Z,10.37
2018-05-26T21:28:34.856Z,11.47
2018-05-26T21:31:02.315Z,9.90
2018-05-26T21:33:29.770Z,11.30
2018-05-26T21:35:57.209Z,10.50
2018-05-26T21:38:24.657Z,10.50
2018-05-26T21:40:52.126Z,11.10
2018-05-26T21:43:19.583Z,10.30
2018-05-26T21:45:47.799Z,11.90
2018-05-26T21:48:15.241Z,10.10
2018-05-26T21:50:42.687Z,10.90
2018-05-26T21:53:10.142Z,9.77
2018-05-26T21:55:37.580Z,10.30
2018-05-26T21:58:05.045Z,10.33
2018-05-26T22:00:32.479Z,10.43
2018-05-26T22:02:59.921Z,10.67
2018-05-26T22:05:27.358Z,9.83
2018-05-26T22:07:54.819Z,9.20
2018-05-26T22:10:23.022Z,10.50
2018-05-26T22:12:50.470Z,10.93
2018-05-26T22:15:17.912Z,9.20
2018-05-26T22:17:45.362Z,8.80
2018-05-26T22:20:12.798Z,10.00
2018-05-26T22:22:40.252Z,10.00
2018-05-26T22:25:07.699Z,10.37
2018-05-26T22:27:35.155Z,9.20
2018-05-26T22:30:03.357Z,9.63
2018-05-26T22:32:31.607Z,9.83
2018-05-26T22:34:59.806Z,9.23
2018-05-26T22:37:27.260Z,9.50
2018-05-26T22:39:54.702Z,9.93
2018-05-26T22:42:22.158Z,9.50
2018-05-26T22:44:49.607Z,8.93
2018-05-26T22:47:17.064Z,8.57
2018-05-26T22:49:44.522Z,9.23
2018-05-26T22:52:12.729Z,8.83
2018-05-26T22:54:40.187Z,9.73
2018-05-26T22:57:07.670Z,10.13
2018-05-26T22:59:35.119Z,10.93
2018-05-26T23:02:03.354Z,10.07
2018-05-26T23:04:30.819Z,10.20
2018-05-26T23:06:59.111Z,9.87
2018-05-26T23:09:26.547Z,10.07
2018-05-26T23:11:53.994Z,9.80
2018-05-26T23:14:21.451Z,9.60
2018-05-26T23:16:48.908Z,10.03
2018-05-26T23:19:16.369Z,8.47
2018-05-26T23:21:43.827Z,11.13
2018-05-26T23:24:11.283Z,9.23
2018-05-26T23:26:39.494Z,9.27
2018-05-26T23:29:07.099Z,8.43
2018-05-26T23:31:34.418Z,10.37
2018-05-26T23:34:01.883Z,10.73
2018-05-26T23:36:29.344Z,9.90
2018-05-26T23:38:56.786Z,9.67
2018-05-26T23:41:24.251Z,10.27
2018-05-26T23:43:51.693Z,8.90
2018-05-26T23:46:19.174Z,8.90
2018-05-26T23:48:47.081Z,8.90
2018-05-26T23:51:14.536Z,9.10
2018-05-26T23:53:43.046Z,10.40
2018-05-26T23:56:11.241Z,10.00
2018-05-26T23:58:38.706Z,10.07
